Swissvale, Pennsylvania
Current Conditions -  °F | °C
As of 12:53 AM on Monday 20 Oct 2014 (Local Time) from KAGC Reporting Station
Clear Clear  
Wind Chill: 39°   Ceiling: Unl
Heat Index: 43°   Visibility: 10mi
Dew Point: 31°   Wind: 7mph
Humidity: 62%   Direction: 200°SSW
Pressure: 30.06"   Gusts: NA
Location:  40.42°N, 79.88°W
Report Text: KAGC 200453Z 20006KT 10SM CLR 06/M01 A3006 RMK AO2 SLP190 T00611006 401220044
Loading
Personal Weather Stations






























Interactive Weather Map
Tropical Storm Tracking
New forecast layout! Learn more

10-Day Weather Forecast

Advertisements
Track Severe Weather on mobile